Elk River, Minnesota
Current Conditions -  °F | °C
As of 4:14 AM on Tuesday 27 Jan 2015 (Local Time) from KPNM Reporting Station
Overcast Overcast  
Wind Chill: 30°   Ceiling: 2000
Heat Index: 34°   Visibility: 10mi
Dew Point: 27°   Wind: 5mph
Humidity: 75%   Direction: 20°NNE
Pressure: 30.07"   Gusts: NA
Location:  45.31°N, 93.57°W
Report Text: KPNM 271014Z AUTO 02004KT 10SM OVC020 01/M03 A3007 RMK AO2
Loading
Personal Weather Stations






























Interactive Weather Map New forecast layout! Learn more

10-Day Weather Forecast

Advertisements
Track Severe Weather on mobile